Time;durP1;ratioP1;P1;durP2;ratioP2;P2;SDS_P1;SDS_P2;PMS_P1;PMS_P2;Temp;Humidity;BMP_temperature;BMP_pressure;BME280_temperature;BME280_humidity;BME280_pressure;Samples;Min_cycle;Max_cycle;Signal;HPM_P1;HPM_P2
2023/01/16 00:01:42;;;;;;;0.47;0.10;;;;;;;7.26;100.00;99701.72;5028286;28;20124;-70
2023/01/16 00:04:07;;;;;;;4.57;0.10;;;;;;;7.29;100.00;99704.03;5031600;28;20120;-71
2023/01/16 00:06:35;;;;;;;0.38;0.10;;;;;;;7.31;100.00;99700.34;5033298;28;20028;-71
2023/01/16 00:09:00;;;;;;;0.25;0.10;;;;;;;7.33;100.00;99671.69;5029142;28;20041;-70
2023/01/16 00:11:25;;;;;;;0.75;0.20;;;;;;;7.31;100.00;99652.88;5027440;28;20037;-71
2023/01/16 00:13:52;;;;;;;0.30;0.10;;;;;;;7.29;100.00;99657.38;5028825;28;20033;-71
2023/01/16 00:16:19;;;;;;;0.50;0.20;;;;;;;7.28;100.00;99645.41;5037540;28;20043;-71
2023/01/16 00:18:44;;;;;;;0.40;0.13;;;;;;;7.27;100.00;99657.53;5033204;28;20061;-70
2023/01/16 00:21:10;;;;;;;0.30;0.10;;;;;;;7.24;100.00;99646.63;5032694;28;20052;-70
2023/01/16 00:23:36;;;;;;;0.80;0.10;;;;;;;7.15;100.00;99663.03;5029924;28;20101;-71
2023/01/16 00:26:05;;;;;;;0.95;0.03;;;;;;;7.06;100.00;99650.97;5038283;28;20078;-71
2023/01/16 00:28:32;;;;;;;1.48;0.10;;;;;;;7.03;100.00;99653.81;5029099;28;20033;-72
2023/01/16 00:30:57;;;;;;;1.77;0.32;;;;;;;7.05;100.00;99662.28;5028060;28;20575;-72
2023/01/16 00:33:23;;;;;;;0.35;0.00;;;;;;;7.09;100.00;99653.25;5027336;28;20037;-72
2023/01/16 00:35:49;;;;;;;2.17;0.10;;;;;;;7.13;100.00;99654.59;5030235;28;20037;-72
2023/01/16 00:38:14;;;;;;;2.00;0.00;;;;;;;7.14;100.00;99640.69;5027907;28;20033;-72
2023/01/16 00:40:40;;;;;;;0.10;0.00;;;;;;;7.12;100.00;99617.50;5026636;28;20226;-72
2023/01/16 00:43:05;;;;;;;0.10;0.10;;;;;;;7.09;100.00;99606.63;5027668;28;20078;-71
2023/01/16 00:45:31;;;;;;;0.20;0.00;;;;;;;7.01;100.00;99604.75;5027051;28;20038;-71
2023/01/16 00:47:58;;;;;;;0.10;0.00;;;;;;;7.05;100.00;99606.09;5028381;28;20087;-71
2023/01/16 00:50:23;;;;;;;0.00;0.00;;;;;;;7.02;100.00;99605.56;5027019;28;20057;-71
2023/01/16 00:52:49;;;;;;;0.00;0.00;;;;;;;6.78;100.00;99603.47;5028558;28;20029;-71
2023/01/16 00:55:14;;;;;;;0.00;0.00;;;;;;;6.54;100.00;99596.19;5029618;28;20062;-70
2023/01/16 00:57:40;;;;;;;0.10;0.00;;;;;;;6.42;100.00;99608.47;5030771;28;20492;-69
2023/01/16 01:00:06;;;;;;;0.10;0.00;;;;;;;6.29;100.00;99603.56;5033637;28;20103;-70
2023/01/16 01:02:31;;;;;;;0.30;0.00;;;;;;;6.18;100.00;99606.28;5031017;28;20029;-69
2023/01/16 01:04:57;;;;;;;0.00;0.00;;;;;;;6.12;100.00;99601.69;5031465;28;20029;-70
2023/01/16 01:07:22;;;;;;;0.10;0.00;;;;;;;6.13;100.00;99613.69;5034937;28;20479;-70
2023/01/16 01:09:48;;;;;;;0.10;0.00;;;;;;;6.05;100.00;99604.97;5032933;28;20116;-69
2023/01/16 01:12:13;;;;;;;1.65;0.00;;;;;;;5.96;100.00;99607.41;5031680;28;20029;-69
2023/01/16 01:14:39;;;;;;;0.20;0.00;;;;;;;5.89;100.00;99613.25;5029529;28;20041;-69
2023/01/16 01:17:04;;;;;;;0.10;0.00;;;;;;;5.78;100.00;99597.84;5034170;28;20021;-70
2023/01/16 01:19:30;;;;;;;0.00;0.00;;;;;;;5.72;100.00;99598.38;5032862;28;20067;-68
2023/01/16 01:21:55;;;;;;;0.15;0.00;;;;;;;5.68;100.00;99588.28;5033419;28;20108;-69
2023/01/16 01:24:21;;;;;;;0.10;0.00;;;;;;;5.71;100.00;99582.03;5031796;28;20029;-70
2023/01/16 01:26:46;;;;;;;0.05;0.00;;;;;;;5.61;100.00;99581.25;5031303;28;20108;-69
2023/01/16 01:29:12;;;;;;;0.40;0.00;;;;;;;5.57;100.00;99580.69;5032130;28;20409;-69
2023/01/16 01:31:46;;;;;;;0.65;0.00;;;;;;;5.53;100.00;99569.00;5031315;28;20025;-69
2023/01/16 01:34:11;;;;;;;0.52;0.00;;;;;;;5.59;100.00;99558.13;5028312;28;20477;-70
2023/01/16 01:36:47;;;;;;;0.73;0.10;;;;;;;5.60;100.00;99552.00;5032322;28;20044;-70
2023/01/16 01:39:13;;;;;;;0.10;0.00;;;;;;;5.65;100.00;99547.25;5026242;28;20021;-69
2023/01/16 01:41:38;;;;;;;0.00;0.00;;;;;;;5.61;100.00;99532.16;5030196;28;20116;-69
2023/01/16 01:44:42;;;;;;;0.00;0.00;;;;;;;5.57;100.00;99554.84;5029980;28;20036;-70
2023/01/16 01:47:08;;;;;;;0.00;0.00;;;;;;;5.51;100.00;99534.72;5031204;28;20481;-69
2023/01/16 01:49:34;;;;;;;0.00;0.00;;;;;;;5.55;100.00;99535.25;5032050;28;20057;-70
2023/01/16 01:52:03;;;;;;;0.15;0.00;;;;;;;5.58;100.00;99524.66;5030003;28;20067;-69
2023/01/16 01:54:51;;;;;;;0.00;0.00;;;;;;;5.61;100.00;99530.38;5033281;28;20038;-70
2023/01/16 01:57:39;;;;;;;0.22;0.00;;;;;;;5.68;100.00;99525.44;5030252;28;20041;-70
2023/01/16 02:00:14;;;;;;;0.10;0.00;;;;;;;5.63;100.00;99515.56;5030578;28;20060;-71
2023/01/16 02:02:47;;;;;;;0.00;0.00;;;;;;;5.61;100.00;99519.22;5036352;28;20033;-71
2023/01/16 02:05:19;;;;;;;0.00;0.00;;;;;;;5.59;100.00;99528.88;5028113;28;20367;-71
2023/01/16 02:07:45;;;;;;;0.10;0.00;;;;;;;5.56;100.00;99517.03;5032908;28;20038;-70
2023/01/16 02:10:21;;;;;;;1.20;0.00;;;;;;;5.56;100.00;99531.72;5031441;28;20392;-70
2023/01/16 02:12:48;;;;;;;0.03;0.00;;;;;;;5.52;100.00;99551.84;5026682;28;20392;-70
2023/01/16 02:15:13;;;;;;;0.55;0.00;;;;;;;5.48;100.00;99571.16;5031662;28;20048;-70
2023/01/16 02:20:34;;;;;;;1.17;0.10;;;;;;;5.47;100.00;99541.09;5027611;28;20112;-70
2023/01/16 02:23:20;;;;;;;0.10;0.00;;;;;;;5.39;100.00;99519.47;5037320;28;20071;-70
2023/01/16 02:26:19;;;;;;;0.10;0.00;;;;;;;5.37;100.00;99536.88;5025217;28;20037;-71
2023/01/16 02:29:22;;;;;;;3.15;0.00;;;;;;;5.32;100.00;99548.41;5024846;28;20030;-70
2023/01/16 02:32:12;;;;;;;0.20;0.00;;;;;;;5.43;100.00;99547.47;5025504;28;20466;-71
2023/01/16 02:35:21;;;;;;;0.00;0.00;;;;;;;5.51;100.00;99523.56;5030417;28;20390;-72
2023/01/16 02:38:04;;;;;;;0.00;0.00;;;;;;;5.58;100.00;99520.31;5030469;28;20036;-72
2023/01/16 02:40:38;;;;;;;0.43;0.00;;;;;;;5.38;100.00;99513.47;5028516;28;20106;-72
2023/01/16 02:43:37;;;;;;;0.00;0.00;;;;;;;5.24;100.00;99514.69;5026174;28;20036;-72
2023/01/16 02:46:20;;;;;;;0.00;0.00;;;;;;;5.23;100.00;99514.81;5018307;28;20038;-72
2023/01/16 02:49:03;;;;;;;0.00;0.00;;;;;;;5.24;100.00;99511.28;5029821;28;20029;-72
2023/01/16 02:51:42;;;;;;;0.70;0.10;;;;;;;5.29;100.00;99516.88;5027341;28;20401;-73
2023/01/16 02:54:32;;;;;;;0.10;0.00;;;;;;;5.37;100.00;99517.03;5029990;28;20071;-73
2023/01/16 02:57:07;;;;;;;0.00;0.00;;;;;;;5.42;100.00;99517.44;4998534;28;20040;-73
2023/01/16 02:59:33;;;;;;;0.03;0.00;;;;;;;5.45;100.00;99514.59;5034231;28;20033;-74
2023/01/16 03:02:01;;;;;;;0.00;0.00;;;;;;;5.48;100.00;99519.47;5035442;28;20033;-73
2023/01/16 03:04:41;;;;;;;0.28;0.00;;;;;;;5.52;100.00;99510.50;5034084;28;20404;-73
2023/01/16 03:07:29;;;;;;;0.93;0.00;;;;;;;5.54;100.00;99502.63;5033748;28;20481;-73
2023/01/16 03:10:15;;;;;;;0.30;0.00;;;;;;;5.52;100.00;99497.59;5024368;28;20040;-73
2023/01/16 03:13:12;;;;;;;;;;;;;;;5.53;100.00;99494.06;5036447;28;20056;-73
2023/01/16 03:16:25;;;;;;;0.95;0.15;;;;;;;5.56;100.00;99491.19;5029582;28;19971;-73
2023/01/16 03:19:27;;;;;;;0.77;0.00;;;;;;;5.56;100.00;99482.63;4981831;28;20034;-73
2023/01/16 03:22:23;;;;;;;0.13;0.00;;;;;;;5.61;100.00;99485.63;4979750;28;20050;-73
2023/01/16 03:25:09;;;;;;;0.43;0.00;;;;;;;5.63;100.00;99487.13;4988320;28;20027;-72
2023/01/16 03:28:04;;;;;;;0.25;0.00;;;;;;;5.61;100.00;99483.03;4986298;28;20054;-73
2023/01/16 03:30:48;;;;;;;1.92;0.00;;;;;;;5.62;100.00;99484.69;4978479;28;20134;-73
2023/01/16 03:33:45;;;;;;;0.52;0.00;;;;;;;5.66;100.00;99491.22;4991570;28;20125;-73
2023/01/16 03:36:23;;;;;;;0.08;0.00;;;;;;;5.74;100.00;99493.91;4983191;28;20042;-73
2023/01/16 03:38:51;;;;;;;0.20;0.00;;;;;;;5.78;100.00;99484.09;4990358;28;20497;-73
2023/01/16 03:41:23;;;;;;;0.10;0.00;;;;;;;5.67;100.00;99483.28;4987175;28;20054;-72
2023/01/16 03:43:52;;;;;;;0.10;0.00;;;;;;;5.61;100.00;99470.94;4989888;28;20126;-72
2023/01/16 03:46:36;;;;;;;0.65;0.00;;;;;;;5.59;100.00;99480.59;4991823;28;20155;-73
2023/01/16 03:49:13;;;;;;;1.25;0.10;;;;;;;5.62;100.00;99480.31;4987159;28;20051;-73
2023/01/16 03:51:44;;;;;;;0.00;0.00;;;;;;;5.67;100.00;99478.13;4986481;28;20026;-72
2023/01/16 03:54:22;;;;;;;0.10;0.00;;;;;;;5.73;100.00;99474.16;5009538;28;20041;-72
2023/01/16 03:56:52;;;;;;;0.10;0.00;;;;;;;5.74;100.00;99472.41;5033742;28;20120;-72
2023/01/16 03:59:18;;;;;;;0.10;0.00;;;;;;;5.65;100.00;99469.72;5030710;28;20061;-73
2023/01/16 04:01:48;;;;;;;0.80;0.20;;;;;;;5.60;100.00;99469.31;5027385;28;20096;-72
2023/01/16 04:04:32;;;;;;;0.60;0.17;;;;;;;5.58;100.00;99467.81;5028988;28;20044;-72
2023/01/16 04:07:07;;;;;;;1.00;0.25;;;;;;;5.55;100.00;99473.25;5023665;28;20061;-72
2023/01/16 04:09:50;;;;;;;0.30;0.10;;;;;;;5.54;100.00;99467.28;5029453;28;20056;-72
2023/01/16 04:12:20;;;;;;;0.28;0.00;;;;;;;5.50;100.00;99465.91;5028196;28;20052;-73
2023/01/16 04:14:55;;;;;;;0.20;0.00;;;;;;;5.44;100.00;99452.72;5026116;28;20465;-72
2023/01/16 04:17:22;;;;;;;0.22;0.00;;;;;;;5.43;100.00;99440.75;5027926;28;20429;-72
2023/01/16 04:19:47;;;;;;;1.20;0.10;;;;;;;5.41;100.00;99435.72;5027800;28;20124;-72
2023/01/16 04:22:23;;;;;;;0.00;0.00;;;;;;;5.41;100.00;99430.56;5029382;28;20484;-73
2023/01/16 04:24:51;;;;;;;0.22;0.00;;;;;;;5.36;100.00;99417.22;5032399;28;20021;-72
2023/01/16 04:27:19;;;;;;;1.05;0.00;;;;;;;5.31;100.00;99411.66;5032518;28;20044;-72
2023/01/16 04:29:45;;;;;;;2.60;0.00;;;;;;;5.30;100.00;99408.25;5031164;28;20082;-72
2023/01/16 04:32:11;;;;;;;2.38;0.10;;;;;;;5.28;100.00;99393.84;5032458;28;20037;-72
2023/01/16 04:34:36;;;;;;;2.22;0.40;;;;;;;5.29;100.00;99380.78;5031459;28;20489;-73
2023/01/16 04:37:02;;;;;;;2.45;0.43;;;;;;;5.31;100.00;99380.66;5031682;28;20492;-72
2023/01/16 04:39:27;;;;;;;1.70;0.30;;;;;;;5.37;100.00;99382.69;5032526;28;20470;-73
2023/01/16 04:41:53;;;;;;;2.15;0.25;;;;;;;5.47;100.00;99387.84;5031838;28;20061;-72
2023/01/16 04:44:18;;;;;;;1.70;0.20;;;;;;;5.50;100.00;99379.84;5032291;28;20091;-73
2023/01/16 04:46:46;;;;;;;0.73;0.10;;;;;;;5.55;100.00;99377.66;5031757;28;20029;-72
2023/01/16 04:49:12;;;;;;;2.92;0.20;;;;;;;5.56;100.00;99374.94;5033089;28;20033;-72
2023/01/16 04:51:38;;;;;;;1.67;0.20;;;;;;;5.57;100.00;99380.91;5031120;28;20037;-73
2023/01/16 04:54:09;;;;;;;0.50;0.10;;;;;;;5.47;100.00;99373.19;5032647;28;20034;-73
2023/01/16 04:56:35;;;;;;;0.20;0.00;;;;;;;5.48;100.00;99377.38;5030594;28;20033;-73
2023/01/16 04:59:01;;;;;;;1.33;0.10;;;;;;;5.40;100.00;99366.13;5030951;28;20057;-72
2023/01/16 05:01:34;;;;;;;0.85;0.08;;;;;;;5.32;100.00;99361.63;5030844;28;20057;-72
2023/01/16 05:03:59;;;;;;;0.22;0.00;;;;;;;5.30;100.00;99360.94;5034278;28;20032;-71
2023/01/16 05:06:26;;;;;;;0.00;0.00;;;;;;;5.24;100.00;99351.16;5031454;28;20060;-73
2023/01/16 05:08:51;;;;;;;2.60;0.00;;;;;;;5.17;100.00;99342.38;5032275;28;20029;-71
2023/01/16 05:11:17;;;;;;;0.73;0.00;;;;;;;5.17;100.00;99339.78;5030352;28;20092;-71
2023/01/16 05:13:42;;;;;;;0.17;0.00;;;;;;;5.09;100.00;99330.13;5030745;28;20138;-72
2023/01/16 05:16:08;;;;;;;1.20;0.10;;;;;;;5.12;100.00;99331.63;5029540;28;20041;-71
2023/01/16 05:18:33;;;;;;;0.10;0.00;;;;;;;5.14;100.00;99322.78;5030981;28;20041;-71
2023/01/16 05:21:00;;;;;;;0.13;0.00;;;;;;;5.19;100.00;99322.38;5031045;28;20037;-71
2023/01/16 05:23:25;;;;;;;0.20;0.00;;;;;;;5.30;100.00;99319.63;5029364;28;20021;-71
2023/01/16 05:25:51;;;;;;;0.20;0.00;;;;;;;5.34;100.00;99316.63;5031921;28;20017;-71
2023/01/16 05:28:16;;;;;;;0.57;0.00;;;;;;;5.34;100.00;99311.47;5030697;28;20362;-71
2023/01/16 05:30:41;;;;;;;0.30;0.00;;;;;;;5.34;100.00;99303.72;5030990;28;20354;-71
2023/01/16 05:33:07;;;;;;;0.40;0.00;;;;;;;5.22;100.00;99296.25;5033052;28;20108;-73
2023/01/16 05:35:33;;;;;;;1.00;0.10;;;;;;;5.29;100.00;99290.41;5025490;28;20041;-73
2023/01/16 05:37:58;;;;;;;0.80;0.10;;;;;;;5.21;100.00;99295.44;5035500;28;20053;-73
2023/01/16 05:40:24;;;;;;;1.60;0.10;;;;;;;5.27;100.00;99296.66;5032345;28;20602;-73
2023/01/16 05:42:49;;;;;;;1.45;0.10;;;;;;;5.31;100.00;99290.25;5033578;28;20041;-73
2023/01/16 05:45:15;;;;;;;1.50;0.32;;;;;;;5.39;100.00;99289.56;5030683;28;20069;-73
2023/01/16 05:47:40;;;;;;;4.65;1.48;;;;;;;5.41;100.00;99280.72;5032493;28;20035;-73
2023/01/16 05:50:06;;;;;;;2.50;0.60;;;;;;;5.38;100.00;99275.84;5030227;28;20523;-73
2023/01/16 05:52:32;;;;;;;0.82;0.15;;;;;;;5.21;100.00;99277.38;5030612;28;20382;-72
2023/01/16 05:54:57;;;;;;;1.05;0.28;;;;;;;5.06;100.00;99277.97;5031815;28;20028;-73
2023/01/16 05:57:23;;;;;;;0.55;0.10;;;;;;;4.97;100.00;99271.84;5030541;28;20051;-72
2023/01/16 05:59:50;;;;;;;0.40;0.10;;;;;;;5.07;100.00;99271.84;5033040;28;20061;-73
2023/01/16 06:02:17;;;;;;;1.48;0.30;;;;;;;5.11;100.00;99255.94;5034991;28;20044;-73
2023/01/16 06:04:42;;;;;;;1.17;0.10;;;;;;;5.08;100.00;99255.41;5030277;28;20041;-74
2023/01/16 06:07:08;;;;;;;0.82;0.13;;;;;;;5.01;100.00;99244.81;5028792;28;20470;-73
2023/01/16 06:09:33;;;;;;;1.13;0.30;;;;;;;4.96;100.00;99244.41;5028521;28;20099;-73
2023/01/16 06:11:59;;;;;;;1.13;0.20;;;;;;;5.02;100.00;99230.13;5035115;28;20025;-73
2023/01/16 06:14:24;;;;;;;1.45;0.20;;;;;;;5.12;100.00;99233.53;5030473;28;20516;-73
2023/01/16 06:16:49;;;;;;;5.22;1.70;;;;;;;5.17;100.00;99233.91;5031204;28;20033;-73
2023/01/16 06:19:15;;;;;;;4.10;1.52;;;;;;;5.16;100.00;99219.38;5029738;28;20091;-73
2023/01/16 06:21:40;;;;;;;4.07;1.35;;;;;;;5.11;100.00;99224.97;5030434;28;20087;-73
2023/01/16 06:24:06;;;;;;;2.15;0.50;;;;;;;5.12;100.00;99225.78;5034159;28;20131;-73
2023/01/16 06:26:32;;;;;;;5.30;1.88;;;;;;;5.16;100.00;99225.34;5033116;28;20030;-73
2023/01/16 06:28:57;;;;;;;1.55;0.40;;;;;;;5.14;100.00;99221.28;5030462;28;20035;-73
2023/01/16 06:31:23;;;;;;;1.30;0.28;;;;;;;5.20;100.00;99218.16;5035542;28;20052;-73
2023/01/16 06:33:48;;;;;;;1.35;0.25;;;;;;;5.23;100.00;99208.31;5030829;28;20048;-73
2023/01/16 06:36:14;;;;;;;1.45;0.25;;;;;;;5.21;100.00;99212.00;5027660;28;20519;-73
2023/01/16 06:38:39;;;;;;;0.82;0.28;;;;;;;5.21;100.00;99212.00;5028808;28;20037;-73
2023/01/16 06:41:05;;;;;;;0.68;0.30;;;;;;;5.25;100.00;99218.50;5027274;28;20029;-73
2023/01/16 06:43:31;;;;;;;1.52;0.40;;;;;;;5.27;100.00;99219.19;5035408;28;20374;-73
2023/01/16 06:45:56;;;;;;;1.20;0.30;;;;;;;5.28;100.00;99213.06;5028965;28;20052;-73
2023/01/16 06:48:22;;;;;;;1.45;0.35;;;;;;;5.32;100.00;99204.09;5029517;28;20124;-73
2023/01/16 06:50:48;;;;;;;2.17;0.50;;;;;;;5.32;100.00;99209.25;5029371;28;20099;-72
2023/01/16 06:53:13;;;;;;;2.25;0.75;;;;;;;5.24;100.00;99217.69;5028874;28;20465;-73
2023/01/16 06:55:40;;;;;;;1.88;0.80;;;;;;;5.24;100.00;99216.88;5027916;28;20044;-73
2023/01/16 06:58:07;;;;;;;0.90;0.30;;;;;;;5.25;100.00;99211.56;5029752;28;20488;-73
2023/01/16 07:00:33;;;;;;;0.80;0.30;;;;;;;5.15;100.00;99217.75;5030459;28;20034;-73
2023/01/16 07:02:59;;;;;;;0.82;0.22;;;;;;;5.09;100.00;99213.16;5030671;28;20384;-73
2023/01/16 07:05:26;;;;;;;1.77;0.40;;;;;;;5.02;100.00;99206.91;5030290;28;20022;-73
2023/01/16 07:07:52;;;;;;;1.17;0.50;;;;;;;4.99;100.00;99203.66;5029697;28;20025;-73
2023/01/16 07:10:20;;;;;;;2.45;0.60;;;;;;;5.08;100.00;99207.16;5030311;28;20044;-74
2023/01/16 07:12:46;;;;;;;1.45;0.30;;;;;;;5.12;100.00;99207.69;5030553;28;20034;-73
2023/01/16 07:23:43;;;;;;;0.40;0.13;;;;;;;5.10;100.00;99200.09;5006348;28;20100;-73
2023/01/16 07:26:11;;;;;;;1.05;0.20;;;;;;;5.08;100.00;99206.34;5003535;28;20612;-73
2023/01/16 07:28:37;;;;;;;0.50;0.20;;;;;;;5.12;100.00;99200.78;5006443;28;20532;-73
2023/01/16 07:31:05;;;;;;;0.75;0.13;;;;;;;5.16;100.00;99199.53;5007319;28;20133;-73
2023/01/16 07:33:31;;;;;;;0.50;0.20;;;;;;;5.16;100.00;99201.31;5010341;28;20049;-73
2023/01/16 07:35:56;;;;;;;0.75;0.20;;;;;;;5.11;100.00;99204.31;5005924;28;20075;-74
2023/01/16 07:38:22;;;;;;;1.20;0.30;;;;;;;5.13;100.00;99201.59;5006018;28;20204;-73
2023/01/16 07:40:48;;;;;;;0.77;0.30;;;;;;;5.12;100.00;99187.03;5002061;28;20097;-74
2023/01/16 07:43:14;;;;;;;2.97;0.20;;;;;;;5.20;100.00;99190.53;5004889;28;20084;-75
2023/01/16 07:45:39;;;;;;;0.60;0.20;;;;;;;5.22;100.00;99188.63;4985476;28;20041;-74
2023/01/16 07:48:05;;;;;;;0.73;0.30;;;;;;;5.18;100.00;99199.41;5008937;28;20220;-75
2023/01/16 07:50:30;;;;;;;0.57;0.22;;;;;;;5.20;100.00;99189.75;5004644;28;20188;-74
2023/01/16 07:52:56;;;;;;;1.90;0.30;;;;;;;5.19;100.00;99190.69;5007129;28;20034;-74
2023/01/16 07:55:23;;;;;;;0.65;0.20;;;;;;;5.14;100.00;99188.53;5019720;28;20052;-74
2023/01/16 07:57:48;;;;;;;0.50;0.20;;;;;;;5.11;100.00;99190.59;5029540;28;20079;-75
2023/01/16 08:00:14;;;;;;;0.80;0.20;;;;;;;5.10;100.00;99189.78;5031210;28;20497;-74
2023/01/16 08:02:40;;;;;;;0.60;0.22;;;;;;;5.15;100.00;99197.09;5029078;28;20044;-75
2023/01/16 08:05:07;;;;;;;0.80;0.35;;;;;;;5.13;100.00;99191.25;5031177;28;20065;-74
2023/01/16 08:07:32;;;;;;;0.93;0.30;;;;;;;5.12;100.00;99190.44;5030826;28;20025;-74
2023/01/16 08:09:57;;;;;;;0.50;0.10;;;;;;;5.10;100.00;99188.94;5028649;28;20404;-74
2023/01/16 08:12:23;;;;;;;0.32;0.10;;;;;;;5.00;100.00;99183.81;5026350;28;20113;-74
2023/01/16 08:14:49;;;;;;;0.30;0.00;;;;;;;4.91;100.00;99175.13;5021369;28;20136;-74
2023/01/16 08:17:15;;;;;;;0.55;0.20;;;;;;;4.89;100.00;99182.19;5029847;28;20042;-74
2023/01/16 08:19:40;;;;;;;3.97;0.50;;;;;;;4.90;100.00;99172.69;5030059;28;20029;-74
2023/01/16 08:22:06;;;;;;;1.50;0.52;;;;;;;4.92;100.00;99170.78;5026520;28;20500;-74
2023/01/16 08:24:31;;;;;;;1.40;0.32;;;;;;;4.94;100.00;99179.19;5029038;28;20021;-75
2023/01/16 08:26:57;;;;;;;0.55;0.20;;;;;;;4.95;100.00;99178.25;5029868;28;20489;-75
2023/01/16 08:29:23;;;;;;;1.20;0.40;;;;;;;4.95;100.00;99184.22;5026301;28;20150;-75
2023/01/16 08:31:48;;;;;;;1.63;0.40;;;;;;;4.97;100.00;99182.31;5027992;28;20074;-75
2023/01/16 08:34:14;;;;;;;1.38;0.20;;;;;;;4.97;100.00;99186.66;5028552;28;20044;-75
2023/01/16 08:36:40;;;;;;;0.70;0.13;;;;;;;5.00;100.00;99188.97;5030370;28;20044;-74
2023/01/16 08:39:06;;;;;;;0.80;0.20;;;;;;;5.03;100.00;99187.88;5032683;28;20476;-74
2023/01/16 08:52:36;;;;;;;0.60;0.20;;;;;;;5.05;100.00;99198.88;5027822;28;20052;-75
2023/01/16 08:55:05;;;;;;;0.75;0.10;;;;;;;5.09;100.00;99180.41;5028545;28;20038;-75
2023/01/16 08:57:31;;;;;;;1.20;0.20;;;;;;;5.12;100.00;99181.88;5028254;28;20048;-74
2023/01/16 08:59:57;;;;;;;2.05;0.30;;;;;;;5.09;100.00;99177.00;5026069;28;20042;-75
2023/01/16 09:02:24;;;;;;;0.90;0.40;;;;;;;5.16;100.00;99172.91;5024173;28;20037;-75
2023/01/16 09:04:50;;;;;;;1.02;0.20;;;;;;;5.03;100.00;99172.41;5032240;28;20047;-75
2023/01/16 09:07:16;;;;;;;1.15;0.20;;;;;;;5.07;100.00;99174.56;5036329;28;20477;-75
2023/01/16 09:09:42;;;;;;;0.55;0.20;;;;;;;5.03;100.00;99169.81;5027847;28;20563;-76
2023/01/16 09:14:55;;;;;;;0.63;0.20;;;;;;;5.13;100.00;99168.84;5026180;28;20048;-75
2023/01/16 09:17:23;;;;;;;1.20;0.20;;;;;;;5.22;100.00;99156.81;5027478;28;20025;-75
2023/01/16 09:19:48;;;;;;;0.43;0.10;;;;;;;5.26;100.00;99160.75;5031624;28;20025;-76
2023/01/16 09:22:13;;;;;;;2.30;0.30;;;;;;;5.30;100.00;99146.59;5031605;28;20511;-74
2023/01/16 09:24:39;;;;;;;1.08;0.20;;;;;;;5.24;100.00;99152.31;5030609;28;20029;-74
2023/01/16 09:27:07;;;;;;;0.57;0.20;;;;;;;5.36;100.00;99156.34;5036216;28;20407;-75
2023/01/16 09:29:32;;;;;;;0.50;0.20;;;;;;;5.37;100.00;99155.41;5038435;28;20104;-75
2023/01/16 09:32:00;;;;;;;1.05;0.20;;;;;;;5.36;100.00;99152.97;5037448;28;20121;-75
2023/01/16 09:34:26;;;;;;;1.10;0.30;;;;;;;5.33;100.00;99148.88;5029768;28;20042;-75
2023/01/16 09:36:52;;;;;;;1.20;0.60;;;;;;;5.37;100.00;99155.41;5031167;28;20126;-74
2023/01/16 09:39:17;;;;;;;1.77;0.60;;;;;;;5.38;100.00;99146.69;5030080;28;20476;-75
2023/01/16 09:44:41;;;;;;;1.60;0.75;;;;;;;5.42;100.00;99135.13;5030996;28;20068;-75
2023/01/16 09:47:13;;;;;;;3.20;1.52;;;;;;;5.44;100.00;99133.22;5035092;28;20033;-74
2023/01/16 09:49:48;;;;;;;2.33;0.60;;;;;;;5.39;100.00;99127.66;5030212;28;20046;-76
2023/01/16 09:58:38;;;;;;;1.10;0.40;;;;;;;5.38;100.00;99120.06;5016110;28;20111;-74
2023/01/16 10:01:30;;;;;;;1.50;0.40;;;;;;;5.51;100.00;99121.34;5031281;28;20034;-74
2023/01/16 10:04:10;;;;;;;1.38;0.40;;;;;;;5.57;100.00;99110.44;5029252;28;20571;-74
2023/01/16 10:06:48;;;;;;;3.45;0.40;;;;;;;5.60;100.00;99115.31;5028094;28;20044;-74
2023/01/16 10:09:33;;;;;;;1.40;0.30;;;;;;;5.55;100.00;99104.59;5028847;28;20029;-74
2023/01/16 10:12:04;;;;;;;1.50;0.30;;;;;;;5.54;100.00;99097.00;5028932;28;20033;-74
2023/01/16 10:14:51;;;;;;;1.60;0.60;;;;;;;5.47;100.00;99095.94;5031878;28;20116;-74
2023/01/16 10:17:35;;;;;;;2.15;0.70;;;;;;;5.48;100.00;99089.81;5030679;28;20029;-74
2023/01/16 10:20:38;;;;;;;2.70;0.75;;;;;;;5.58;100.00;99081.06;5036311;28;20487;-73
2023/01/16 10:23:06;;;;;;;2.30;0.90;;;;;;;5.64;100.00;99075.31;5037130;28;20030;-74
2023/01/16 10:25:46;;;;;;;1.25;0.73;;;;;;;5.66;100.00;99081.13;5033674;28;20037;-73
2023/01/16 10:28:39;;;;;;;1.30;0.40;;;;;;;5.57;100.00;99079.44;5031662;28;20041;-74
2023/01/16 10:31:13;;;;;;;0.93;0.55;;;;;;;5.64;100.00;99075.31;5032761;28;20040;-74
2023/01/16 10:33:43;;;;;;;1.60;0.82;;;;;;;5.62;100.00;99066.88;5030320;28;20083;-74
2023/01/16 10:36:12;;;;;;;1.52;0.70;;;;;;;5.64;100.00;99064.97;5029452;28;20033;-74
2023/01/16 10:38:45;;;;;;;1.38;0.90;;;;;;;5.66;100.00;99057.06;5028975;28;20487;-73
2023/01/16 10:49:54;;;;;;;0.65;0.30;;;;;;;5.54;100.00;99035.81;5014745;28;20064;-72
2023/01/16 10:52:20;;;;;;;1.38;0.40;;;;;;;5.57;100.00;99026.94;5037256;28;20032;-73
2023/01/16 10:54:45;;;;;;;0.50;0.20;;;;;;;5.56;100.00;99023.56;5028165;28;20033;-73
2023/01/16 10:57:16;;;;;;;1.75;0.38;;;;;;;5.53;100.00;99031.59;5030392;28;20521;-73
2023/01/16 10:59:44;;;;;;;0.75;0.60;;;;;;;5.60;100.00;99031.81;5028959;28;20123;-73
2023/01/16 11:02:29;;;;;;;2.00;0.68;;;;;;;5.59;100.00;99033.59;5028847;28;20044;-73
2023/01/16 11:04:54;;;;;;;1.40;0.60;;;;;;;5.56;100.00;99023.56;5027678;28;20116;-72
2023/01/16 11:07:21;;;;;;;1.50;1.10;;;;;;;5.63;100.00;99023.78;5029419;28;20034;-74
2023/01/16 11:09:46;;;;;;;2.63;1.20;;;;;;;5.65;100.00;99030.41;5030215;28;20029;-73
2023/01/16 11:18:29;;;;;;;5.38;1.17;;;;;;;5.58;100.00;99031.16;5029977;28;20131;-73
2023/01/16 11:21:13;;;;;;;2.42;1.20;;;;;;;5.56;100.00;99020.97;5027141;28;20040;-73
2023/01/16 11:23:42;;;;;;;2.30;1.40;;;;;;;5.57;100.00;99016.59;5027928;28;20040;-74
2023/01/16 11:26:10;;;;;;;4.18;1.70;;;;;;;5.49;100.00;99012.19;5029661;28;20124;-73
2023/01/16 11:28:36;;;;;;;2.55;1.40;;;;;;;5.35;100.00;99004.94;5028998;28;20040;-73
2023/01/16 11:31:18;;;;;;;3.38;1.80;;;;;;;5.33;100.00;98999.91;5029665;28;20068;-73
2023/01/16 11:34:00;;;;;;;5.55;2.80;;;;;;;5.35;100.00;98994.59;5028378;28;20064;-73
2023/01/16 11:36:29;;;;;;;3.78;2.10;;;;;;;5.36;100.00;98993.63;5025523;28;20061;-73
2023/01/16 11:38:55;;;;;;;7.10;3.40;;;;;;;5.41;100.00;98991.44;5027774;28;20089;-73
2023/01/16 11:41:27;;;;;;;7.40;4.00;;;;;;;5.38;100.00;98981.38;5029037;28;20555;-73
2023/01/16 11:46:59;;;;;;;4.38;2.03;;;;;;;5.45;100.00;98971.28;5029460;28;20060;-74
2023/01/16 11:49:38;;;;;;;5.07;2.92;;;;;;;5.48;100.00;98969.22;5028620;28;20080;-74
2023/01/16 11:52:04;;;;;;;4.47;3.28;;;;;;;5.44;100.00;98964.50;5029236;28;20052;-74
2023/01/16 11:54:34;;;;;;;8.02;4.35;;;;;;;5.36;100.00;98959.25;5027845;28;20034;-74
2023/01/16 11:57:15;;;;;;;6.90;4.55;;;;;;;5.36;100.00;98952.31;5028285;28;20033;-74
2023/01/16 12:00:03;;;;;;;3.17;2.20;;;;;;;5.33;100.00;98950.03;5028746;28;20032;-74
2023/01/16 12:02:55;;;;;;;3.90;0.73;;;;;;;4.92;100.00;98944.47;5026015;28;20037;-73
2023/01/16 12:08:38;;;;;;;0.70;0.30;;;;;;;4.66;100.00;98897.13;5028602;28;20440;-73
2023/01/16 12:11:11;;;;;;;2.08;0.20;;;;;;;4.65;100.00;98900.66;5029758;28;20033;-73
2023/01/16 12:17:07;;;;;;;2.80;0.82;;;;;;;4.71;100.00;98894.09;5026855;28;20056;-72
2023/01/16 12:19:53;;;;;;;3.00;0.90;;;;;;;4.85;100.00;98896.97;5032455;28;20040;-73
2023/01/16 12:22:39;;;;;;;1.40;0.40;;;;;;;4.78;100.00;98901.09;5025642;28;20033;-73
2023/01/16 12:25:26;;;;;;;0.90;0.25;;;;;;;4.75;100.00;98898.81;5024431;28;20382;-73
2023/01/16 12:28:09;;;;;;;1.65;0.60;;;;;;;4.85;100.00;98899.56;5029165;28;20042;-73
2023/01/16 12:31:35;;;;;;;1.60;0.55;;;;;;;5.06;100.00;98893.31;5026344;28;20036;-73
2023/01/16 12:34:28;;;;;;;0.90;0.40;;;;;;;5.17;100.00;98885.34;5026583;28;20057;-72
2023/01/16 12:37:17;;;;;;;1.50;0.15;;;;;;;4.81;100.00;98874.19;5028105;28;20521;-73
2023/01/16 12:40:28;;;;;;;0.82;0.20;;;;;;;4.76;100.00;98855.75;5027259;28;20029;-72
2023/01/16 12:43:33;;;;;;;1.23;0.30;;;;;;;4.95;100.00;98860.78;5026261;28;20488;-73
2023/01/16 12:46:14;;;;;;;1.70;0.80;;;;;;;5.10;100.00;98859.31;5034738;28;20041;-72
2023/01/16 12:49:00;;;;;;;2.80;0.90;;;;;;;5.20;100.00;98854.06;5026769;28;20045;-73
2023/01/16 12:51:40;;;;;;;3.85;1.85;;;;;;;5.31;100.00;98857.22;5035386;28;20037;-72
2023/01/16 12:54:51;;;;;;;3.22;1.70;;;;;;;5.27;100.00;98855.06;5030733;28;21659;-73